Time;durP1;ratioP1;P1;durP2;ratioP2;P2;SDS_P1;SDS_P2;PMS_P1;PMS_P2;Temp;Humidity;BMP_temperature;BMP_pressure;BME280_temperature;BME280_humidity;BME280_pressure;Samples;Min_cycle;Max_cycle;Signal;HPM_P1;HPM_P2
2022/04/12 00:00:40;;;;;;;3.97;2.78;;;;;;;6.12;100.00;101529.94;4923071;29;20074;-79
2022/04/12 00:03:09;;;;;;;6.80;2.50;;;;;;;6.12;100.00;101524.69;4932704;29;20054;-79
2022/04/12 00:05:40;;;;;;;6.25;3.30;;;;;;;6.12;100.00;101516.84;4928239;28;20039;-79
2022/04/12 00:08:09;;;;;;;;;;;;;;;6.12;100.00;101502.88;4934256;29;20492;-80
2022/04/12 00:10:37;;;;;;;4.95;2.85;;;;;;;6.12;100.00;101511.63;4923829;29;19923;-80
2022/04/12 00:13:06;;;;;;;4.38;2.80;;;;;;;6.12;100.00;101508.13;4951752;28;20413;-79
2022/04/12 00:15:34;;;;;;;3.65;2.70;;;;;;;6.11;100.00;101504.63;4908239;29;20066;-79
2022/04/12 00:20:53;;;;;;;7.45;2.95;;;;;;;6.13;100.00;101489.88;4919473;29;20244;-80
2022/04/12 00:23:22;;;;;;;7.03;3.10;;;;;;;6.14;100.00;101490.75;4955394;28;20409;-81
2022/04/12 00:25:53;;;;;;;7.20;2.67;;;;;;;6.13;100.00;101492.47;4943036;28;20039;-80
2022/04/12 00:28:21;;;;;;;3.08;2.88;;;;;;;6.13;100.00;101494.22;4958365;28;20051;-81
2022/04/12 00:30:50;;;;;;;6.38;3.20;;;;;;;6.12;100.00;101487.19;4930843;29;20043;-80
2022/04/12 00:33:18;;;;;;;5.93;3.20;;;;;;;6.12;100.00;101497.66;4945351;28;20509;-81
2022/04/12 00:35:47;;;;;;;5.22;3.45;;;;;;;6.10;100.00;101494.97;4929197;28;20043;-79
2022/04/12 00:38:18;;;;;;;4.10;3.13;;;;;;;6.09;100.00;101501.06;4917742;28;20054;-80
2022/04/12 00:40:47;;;;;;;7.70;3.33;;;;;;;6.11;100.00;101504.63;4944379;28;20044;-79
2022/04/12 00:43:19;;;;;;;4.72;3.38;;;;;;;6.10;100.00;101505.44;4920911;29;20062;-80
2022/04/12 00:50:09;;;;;;;4.95;3.63;;;;;;;6.10;100.00;101515.03;4936903;28;20511;-80
2022/04/12 00:52:41;;;;;;;7.60;3.85;;;;;;;6.11;100.00;101507.25;4920971;28;20120;-80
2022/04/12 00:55:10;;;;;;;5.22;2.92;;;;;;;6.11;100.00;101503.75;4944271;28;20051;-80
2022/04/12 00:57:41;;;;;;;9.85;3.92;;;;;;;6.11;100.00;101498.50;4920464;29;20043;-81
2022/04/12 01:00:11;;;;;;;5.85;3.90;;;;;;;6.11;100.00;101504.63;4940953;28;20339;-78
2022/04/12 01:02:39;;;;;;;8.07;3.97;;;;;;;6.12;100.00;101493.31;4950108;23;20035;-78
2022/04/12 01:05:08;;;;;;;6.22;3.55;;;;;;;6.13;100.00;101495.09;4947027;28;20039;-78
2022/04/12 01:07:38;;;;;;;5.25;3.70;;;;;;;6.13;100.00;101489.88;4913466;29;20035;-78
2022/04/12 01:10:07;;;;;;;7.07;3.97;;;;;;;6.13;100.00;101488.97;4936905;28;20285;-79
2022/04/12 01:12:38;;;;;;;4.35;3.70;;;;;;;6.13;100.00;101487.25;4934935;29;20064;-78
2022/04/12 01:15:18;;;;;;;4.78;4.05;;;;;;;6.13;100.00;101482.00;4927271;29;20166;-79
2022/04/12 01:17:47;;;;;;;4.63;3.17;;;;;;;6.15;100.00;101479.44;4947116;28;20054;-78
2022/04/12 01:20:19;;;;;;;5.15;3.90;;;;;;;6.15;100.00;101474.22;4932650;29;20062;-78
2022/04/12 01:22:50;;;;;;;5.50;3.90;;;;;;;6.16;100.00;101483.81;4941846;28;20528;-79
2022/04/12 01:25:20;;;;;;;7.93;4.15;;;;;;;6.14;100.00;101462.84;4905163;29;20051;-78
2022/04/12 01:27:49;;;;;;;7.10;3.88;;;;;;;6.14;100.00;101467.19;4908094;29;20059;-79
2022/04/12 01:30:17;;;;;;;7.43;3.80;;;;;;;6.12;100.00;101461.91;4931932;29;20342;-78
2022/04/12 01:32:46;;;;;;;7.13;4.13;;;;;;;6.12;100.00;101456.66;4927172;29;20039;-79
2022/04/12 01:35:14;;;;;;;10.85;4.03;;;;;;;6.12;100.00;101463.63;4931730;29;20047;-78
2022/04/12 01:37:43;;;;;;;5.57;3.63;;;;;;;6.11;100.00;101456.66;4950599;29;20433;-78
2022/04/12 01:40:12;;;;;;;4.28;3.45;;;;;;;6.10;100.00;101444.38;4911358;29;20024;-78
2022/04/12 01:42:40;;;;;;;7.53;4.70;;;;;;;6.09;100.00;101425.19;4928928;29;20390;-78
2022/04/12 01:45:09;;;;;;;7.35;4.18;;;;;;;6.11;100.00;101438.34;4909338;29;20055;-78
2022/04/12 01:47:37;;;;;;;6.55;4.07;;;;;;;6.12;100.00;101425.25;4911432;29;20512;-78
2022/04/12 01:50:06;;;;;;;8.40;4.40;;;;;;;6.11;100.00;101423.50;4929719;29;20260;-78
2022/04/12 01:52:35;;;;;;;8.48;4.65;;;;;;;6.11;100.00;101423.50;4918287;29;20036;-78
2022/04/12 01:55:04;;;;;;;6.10;3.88;;;;;;;6.10;100.00;101431.31;4905138;29;20048;-78
2022/04/12 01:57:33;;;;;;;6.20;4.20;;;;;;;6.09;100.00;101419.97;4923269;28;20052;-78
2022/04/12 02:00:06;;;;;;;7.55;4.70;;;;;;;6.08;100.00;101418.16;4963354;28;20054;-79
2022/04/12 02:02:39;;;;;;;8.52;4.75;;;;;;;6.08;100.00;101418.16;4927550;28;20040;-78
2022/04/12 02:05:08;;;;;;;7.57;4.60;;;;;;;6.07;100.00;101410.25;4915429;29;20040;-78
2022/04/12 02:07:37;;;;;;;7.82;4.57;;;;;;;6.06;100.00;101406.78;4933879;29;20047;-78
2022/04/12 02:10:06;;;;;;;9.02;4.90;;;;;;;6.05;100.00;101405.00;4913696;29;20051;-79
2022/04/12 02:12:35;;;;;;;6.78;4.88;;;;;;;6.04;100.00;101409.34;4887227;29;20052;-79
2022/04/12 02:15:03;;;;;;;10.57;4.80;;;;;;;6.03;100.00;101415.44;4908268;29;20063;-79
2022/04/12 02:17:33;;;;;;;9.07;5.38;;;;;;;6.02;100.00;101408.41;4909418;29;20401;-78
2022/04/12 02:20:03;;;;;;;7.35;5.07;;;;;;;6.01;100.00;101410.97;4910380;29;20401;-79
2022/04/12 02:22:33;;;;;;;8.95;5.40;;;;;;;5.99;100.00;101408.31;4932833;29;20505;-78
2022/04/12 02:25:02;;;;;;;5.95;4.85;;;;;;;5.98;100.00;101410.91;4932523;29;20055;-78
2022/04/12 02:27:31;;;;;;;8.50;5.05;;;;;;;5.96;100.00;101410.84;4919053;28;20058;-78
2022/04/12 02:29:59;;;;;;;7.78;4.88;;;;;;;5.94;100.00;101403.75;4916494;29;20501;-79
2022/04/12 02:32:29;;;;;;;6.07;5.13;;;;;;;5.93;100.00;101395.00;4932301;29;20052;-78
2022/04/12 02:35:00;;;;;;;6.32;4.50;;;;;;;5.91;100.00;101387.97;4927435;28;20044;-79
2022/04/12 02:37:29;;;;;;;6.45;5.07;;;;;;;5.88;100.00;101387.84;4932846;29;20404;-78
2022/04/12 02:39:57;;;;;;;9.05;5.43;;;;;;;5.86;100.00;101388.72;4932281;29;20059;-79
2022/04/12 02:42:26;;;;;;;6.22;4.90;;;;;;;5.83;100.00;101391.22;4910836;29;20063;-78
2022/04/12 02:44:54;;;;;;;8.07;4.82;;;;;;;5.82;100.00;101384.22;4910646;29;20393;-78
2022/04/12 02:47:25;;;;;;;12.80;5.75;;;;;;;5.81;100.00;101390.28;4893436;29;20048;-77
2022/04/12 02:49:53;;;;;;;;;;;;;;;5.79;100.00;101384.13;4923221;29;20413;-77
2022/04/12 02:52:22;;;;;;;7.82;5.47;;;;;;;5.79;100.00;101378.00;4933613;29;20493;-78
2022/04/12 02:54:50;;;;;;;6.75;5.47;;;;;;;5.78;100.00;101369.25;4943908;28;20066;-79
2022/04/12 02:57:19;;;;;;;7.57;5.25;;;;;;;5.76;100.00;101373.56;4927693;29;20155;-78
2022/04/12 02:59:47;;;;;;;8.60;5.70;;;;;;;5.77;100.00;101379.69;4913748;29;20047;-78
2022/04/12 03:02:16;;;;;;;7.63;5.25;;;;;;;5.75;100.00;101390.09;4921863;29;20713;-78
2022/04/12 03:04:45;;;;;;;8.30;5.15;;;;;;;5.74;100.00;101393.53;4925494;29;20408;-78
2022/04/12 03:07:14;;;;;;;8.73;5.28;;;;;;;5.75;100.00;101389.22;4928055;29;20269;-78
2022/04/12 03:09:43;;;;;;;7.05;5.30;;;;;;;5.74;100.00;101392.66;4922605;29;20067;-78
2022/04/12 03:12:11;;;;;;;10.55;6.00;;;;;;;5.72;100.00;101397.84;4896025;29;20269;-78
2022/04/12 03:14:40;;;;;;;8.75;6.32;;;;;;;5.71;100.00;101406.53;4894889;29;20039;-78
2022/04/12 03:17:08;;;;;;;12.90;6.15;;;;;;;5.71;100.00;101398.69;4923970;29;20170;-78
2022/04/12 03:19:37;;;;;;;10.48;6.32;;;;;;;5.70;100.00;101403.88;4907286;29;20374;-79
2022/04/12 03:22:06;;;;;;;10.95;6.47;;;;;;;5.69;100.00;101405.59;4911865;29;20059;-79
2022/04/12 03:24:38;;;;;;;13.15;6.93;;;;;;;5.68;100.00;101411.66;4904494;29;20512;-78
2022/04/12 03:27:07;;;;;;;12.63;7.30;;;;;;;5.66;100.00;101410.72;4944780;29;20452;-79
2022/04/12 03:29:35;;;;;;;14.40;7.43;;;;;;;5.66;100.00;101401.16;4925550;29;20040;-78
2022/04/12 03:32:04;;;;;;;13.52;6.97;;;;;;;5.66;100.00;101408.13;4925372;29;20505;-78
2022/04/12 03:34:32;;;;;;;11.82;7.03;;;;;;;5.65;100.00;101406.31;4923708;29;20061;-78
2022/04/12 03:37:03;;;;;;;11.85;7.05;;;;;;;5.66;100.00;101410.72;4921381;29;20035;-79
2022/04/12 03:39:32;;;;;;;9.95;6.68;;;;;;;5.65;100.00;101408.94;4931948;29;20525;-78
2022/04/12 03:42:04;;;;;;;13.43;7.50;;;;;;;5.64;100.00;101417.63;4933948;29;20043;-79
2022/04/12 03:44:33;;;;;;;11.70;8.13;;;;;;;5.62;100.00;101408.84;4917486;29;20052;-78
2022/04/12 03:47:01;;;;;;;14.32;6.50;;;;;;;5.62;100.00;101416.69;4947519;29;20028;-80
2022/04/12 03:49:30;;;;;;;10.43;6.63;;;;;;;5.62;100.00;101411.47;4930253;29;20051;-78
2022/04/12 03:51:58;;;;;;;12.02;7.57;;;;;;;5.63;100.00;101421.06;4904019;29;20048;-79
2022/04/12 03:54:26;;;;;;;10.32;7.43;;;;;;;5.62;100.00;101420.19;4900143;29;20063;-78
2022/04/12 03:56:55;;;;;;;17.70;8.18;;;;;;;5.63;100.00;101415.84;4923638;29;20052;-78
2022/04/12 03:59:24;;;;;;;15.07;8.18;;;;;;;5.61;100.00;101410.59;4912111;29;20282;-79
2022/04/12 04:01:52;;;;;;;11.70;8.95;;;;;;;5.60;100.00;101400.97;4932488;29;20048;-80
2022/04/12 04:04:21;;;;;;;13.80;7.80;;;;;;;5.60;100.00;101394.84;4926138;29;20238;-78
2022/04/12 04:06:49;;;;;;;14.90;8.02;;;;;;;5.59;100.00;101396.56;4899530;29;20052;-80
2022/04/12 04:09:18;;;;;;;11.82;6.88;;;;;;;5.58;100.00;101391.31;4932336;28;20055;-78
2022/04/12 04:11:47;;;;;;;10.93;7.47;;;;;;;5.57;100.00;101384.28;4937408;29;20051;-78
2022/04/12 04:14:17;;;;;;;7.77;4.93;;;;;;;5.56;100.00;101383.41;4913522;29;20375;-79
2022/04/12 04:16:45;;;;;;;11.63;6.95;;;;;;;5.55;100.00;101391.19;4919364;29;20051;-79
2022/04/12 04:19:14;;;;;;;10.85;7.70;;;;;;;5.54;100.00;101379.84;4913367;29;20047;-78
2022/04/12 04:21:48;;;;;;;9.85;6.97;;;;;;;5.55;100.00;101384.22;4926973;29;20051;-79
2022/04/12 04:24:16;;;;;;;10.05;6.72;;;;;;;5.56;100.00;101374.69;4927136;28;20039;-78
2022/04/12 04:26:48;;;;;;;10.65;7.50;;;;;;;5.57;100.00;101376.44;4935135;29;20050;-78
2022/04/12 04:29:16;;;;;;;10.25;7.40;;;;;;;5.57;100.00;101371.22;4932662;29;20612;-78
2022/04/12 04:31:45;;;;;;;13.13;7.18;;;;;;;5.56;100.00;101372.06;4915614;29;20051;-78
2022/04/12 04:34:13;;;;;;;14.35;8.18;;;;;;;5.57;100.00;101371.22;4931909;29;20292;-79
2022/04/12 04:36:42;;;;;;;13.30;7.50;;;;;;;5.58;100.00;101383.47;4924468;29;20040;-78
2022/04/12 04:39:11;;;;;;;13.50;7.90;;;;;;;5.57;100.00;101387.78;4920656;29;20052;-78
2022/04/12 04:41:39;;;;;;;8.88;7.28;;;;;;;5.57;100.00;101390.38;4935418;29;20071;-78
2022/04/12 04:44:07;;;;;;;11.40;7.18;;;;;;;5.57;100.00;101382.53;4915946;29;20281;-78
2022/04/12 04:46:36;;;;;;;12.93;7.93;;;;;;;5.56;100.00;101380.78;4917315;29;20399;-78
2022/04/12 04:49:10;;;;;;;9.88;7.57;;;;;;;5.55;100.00;101378.13;4916419;29;20051;-78
2022/04/12 04:51:41;;;;;;;12.07;7.97;;;;;;;5.55;100.00;101378.13;4896630;29;20493;-78
2022/04/12 04:54:09;;;;;;;13.27;7.97;;;;;;;5.55;100.00;101385.97;4909633;29;20416;-78
2022/04/12 04:56:38;;;;;;;11.93;7.95;;;;;;;5.54;100.00;101376.31;4931829;29;20055;-78
2022/04/12 04:59:06;;;;;;;12.82;7.65;;;;;;;5.51;100.00;101377.13;4917151;29;20051;-78
2022/04/12 05:01:35;;;;;;;8.90;6.70;;;;;;;5.51;100.00;101381.47;4891067;29;20056;-77
2022/04/12 05:04:03;;;;;;;13.80;8.25;;;;;;;5.51;100.00;101395.44;4930568;29;20048;-79
2022/04/12 05:06:35;;;;;;;11.73;8.18;;;;;;;5.52;100.00;101384.16;4919195;29;20404;-78
2022/04/12 05:09:03;;;;;;;13.05;7.93;;;;;;;5.54;100.00;101386.78;4919753;29;20050;-78
2022/04/12 05:11:32;;;;;;;10.73;7.00;;;;;;;5.55;100.00;101380.72;4935215;29;20685;-78
2022/04/12 05:14:01;;;;;;;11.18;7.93;;;;;;;5.55;100.00;101399.91;4934557;29;20036;-78
2022/04/12 05:16:29;;;;;;;14.20;7.93;;;;;;;5.56;100.00;101404.31;4912968;28;20062;-78
2022/04/12 05:18:58;;;;;;;12.52;8.00;;;;;;;5.58;100.00;101409.59;4919894;29;20385;-78
2022/04/12 05:21:26;;;;;;;11.18;7.78;;;;;;;5.59;100.00;101412.25;4932966;29;20504;-78
2022/04/12 05:23:55;;;;;;;10.75;8.05;;;;;;;5.59;100.00;101400.91;4908438;29;20039;-78
2022/04/12 05:26:23;;;;;;;13.18;9.60;;;;;;;5.61;100.00;101402.75;4908366;29;20051;-80
2022/04/12 05:28:52;;;;;;;11.13;8.45;;;;;;;5.63;100.00;101397.53;4919506;29;20046;-78
2022/04/12 05:31:20;;;;;;;10.77;7.47;;;;;;;5.63;100.00;101394.94;4927081;29;20048;-78
2022/04/12 05:33:50;;;;;;;30.83;8.80;;;;;;;5.64;100.00;101394.09;4887594;29;20839;-77
2022/04/12 05:36:18;;;;;;;12.52;8.52;;;;;;;5.65;100.00;101394.16;4918426;29;20051;-78
2022/04/12 05:38:46;;;;;;;13.85;9.20;;;;;;;5.67;100.00;101394.19;4897403;29;20055;-78
2022/04/12 05:41:15;;;;;;;14.88;9.70;;;;;;;5.68;100.00;101390.75;4921899;29;20047;-78
2022/04/12 05:43:43;;;;;;;11.70;9.13;;;;;;;5.70;100.00;101398.63;4920503;29;20032;-78
2022/04/12 05:46:12;;;;;;;12.13;9.15;;;;;;;5.71;100.00;101393.47;4914078;29;20052;-77
2022/04/12 05:48:40;;;;;;;14.10;8.77;;;;;;;5.76;100.00;101398.81;4904337;29;20064;-78
2022/04/12 05:51:08;;;;;;;12.13;8.43;;;;;;;5.79;100.00;101380.63;4933500;29;20040;-78
2022/04/12 05:53:38;;;;;;;10.95;8.32;;;;;;;5.84;100.00;101382.53;4925885;29;20047;-78
2022/04/12 05:56:07;;;;;;;11.77;8.85;;;;;;;5.89;100.00;101374.81;4926862;29;20047;-78
2022/04/12 05:58:37;;;;;;;12.02;9.23;;;;;;;5.97;100.00;101375.09;4921064;29;20058;-79
2022/04/12 06:01:06;;;;;;;17.48;12.65;;;;;;;6.05;100.00;101377.13;4933250;29;20421;-78
2022/04/12 06:03:36;;;;;;;12.55;8.23;;;;;;;6.18;100.00;101378.38;4909134;29;21333;-78
2022/04/12 06:06:04;;;;;;;14.55;9.05;;;;;;;6.32;100.00;101375.28;4916703;29;20047;-81
2022/04/12 06:08:33;;;;;;;13.77;8.73;;;;;;;6.49;100.00;101373.13;4895808;29;20559;-78
2022/04/12 06:11:01;;;;;;;14.32;8.95;;;;;;;6.62;100.00;101372.63;4889058;29;20052;-78
2022/04/12 06:13:30;;;;;;;11.65;8.35;;;;;;;6.77;100.00;101383.53;4921052;29;20046;-78
2022/04/12 06:15:58;;;;;;;14.35;7.97;;;;;;;6.92;99.88;101372.56;4901871;29;20048;-78
2022/04/12 06:18:27;;;;;;;13.52;7.88;;;;;;;7.06;99.16;101357.19;4921124;28;20040;-78
2022/04/12 06:20:55;;;;;;;13.73;8.50;;;;;;;7.22;99.23;101359.38;4872056;29;20058;-78
2022/04/12 06:23:24;;;;;;;10.93;7.20;;;;;;;7.37;98.84;101363.22;4886263;29;20074;-78
2022/04/12 06:25:52;;;;;;;11.82;7.80;;;;;;;7.51;97.82;101351.31;4919858;28;20706;-78
2022/04/12 06:28:20;;;;;;;10.68;7.80;;;;;;;7.60;97.51;101348.03;4904492;29;20059;-77
2022/04/12 06:30:49;;;;;;;13.35;8.07;;;;;;;7.65;97.48;101343.78;4877021;29;20052;-78
2022/04/12 06:33:17;;;;;;;13.73;7.78;;;;;;;7.64;96.51;101342.00;4912392;29;20492;-78
2022/04/12 06:35:46;;;;;;;12.82;8.13;;;;;;;7.62;96.07;101343.72;4928893;28;21740;-79
2022/04/12 06:38:14;;;;;;;10.20;7.82;;;;;;;7.60;96.60;101341.06;4947499;28;20058;-78
2022/04/12 06:40:44;;;;;;;19.15;8.35;;;;;;;7.61;96.55;101341.94;4940188;28;20392;-79
2022/04/12 06:43:13;;;;;;;9.27;7.95;;;;;;;7.63;96.04;101340.22;4940248;28;20066;-78
2022/04/12 06:45:42;;;;;;;9.30;7.82;;;;;;;7.65;96.17;101341.16;4921685;29;20040;-79
2022/04/12 06:48:11;;;;;;;13.00;8.52;;;;;;;7.69;96.02;101329.00;4932673;29;20463;-79
2022/04/12 06:50:39;;;;;;;9.25;7.60;;;;;;;7.73;95.58;101326.50;4938023;28;20643;-78
2022/04/12 06:53:07;;;;;;;11.80;7.45;;;;;;;7.81;94.98;101322.28;4936243;28;20059;-80
2022/04/12 06:55:36;;;;;;;9.23;7.05;;;;;;;7.88;95.20;101322.41;4933471;29;20043;-81
2022/04/12 06:58:04;;;;;;;8.68;7.18;;;;;;;7.93;94.52;101336.53;4915739;28;20051;-78
2022/04/12 07:00:33;;;;;;;13.93;7.55;;;;;;;8.02;94.56;101328.84;4946782;28;20050;-78
2022/04/12 07:03:05;;;;;;;9.80;7.43;;;;;;;8.16;94.69;101329.13;4924250;28;20169;-78
2022/04/12 07:05:33;;;;;;;11.75;7.00;;;;;;;8.26;93.98;101339.00;4936071;28;20377;-78
2022/04/12 07:08:02;;;;;;;10.07;6.93;;;;;;;8.33;93.81;101332.09;4930493;28;20158;-77
2022/04/12 07:10:30;;;;;;;9.48;6.60;;;;;;;8.36;92.77;101330.44;4925455;29;20150;-78
2022/04/12 07:13:01;;;;;;;8.10;6.57;;;;;;;8.36;92.34;101335.69;4938075;28;20054;-78
2022/04/12 07:15:30;;;;;;;13.68;7.70;;;;;;;8.35;92.24;101328.66;4916143;29;20062;-78
2022/04/12 07:17:59;;;;;;;10.68;7.20;;;;;;;8.34;91.35;101323.38;4932043;28;20055;-78
2022/04/12 07:20:27;;;;;;;10.65;7.13;;;;;;;8.34;91.98;101333.91;4963925;28;20047;-79
2022/04/12 07:22:56;;;;;;;10.07;6.82;;;;;;;8.34;91.33;101345.28;4926911;28;20270;-78
2022/04/12 07:25:25;;;;;;;8.60;6.38;;;;;;;8.34;91.31;101352.28;4945419;28;20058;-78
2022/04/12 07:27:54;;;;;;;12.73;7.50;;;;;;;8.34;90.79;101365.41;4941028;28;20050;-78
2022/04/12 07:30:22;;;;;;;9.40;6.65;;;;;;;8.31;90.46;101367.97;4955536;28;20036;-77
2022/04/12 07:33:10;;;;;;;7.55;6.47;;;;;;;8.33;90.58;101369.75;4944312;28;20047;-78
2022/04/12 07:35:39;;;;;;;9.88;6.60;;;;;;;8.36;90.55;101366.31;4943317;28;21115;-78
2022/04/12 07:38:07;;;;;;;11.57;6.80;;;;;;;8.40;90.74;101369.03;4928274;28;20574;-77
2022/04/12 07:40:36;;;;;;;10.90;6.88;;;;;;;8.46;91.70;101364.78;4973064;28;20077;-80
2022/04/12 07:43:06;;;;;;;10.60;5.82;;;;;;;8.54;91.18;101358.84;4940914;28;20432;-78
2022/04/12 07:45:36;;;;;;;11.35;6.70;;;;;;;8.66;91.48;101365.16;4943934;28;20396;-78
2022/04/12 07:48:05;;;;;;;8.07;6.10;;;;;;;8.79;91.24;101372.47;4925605;28;20261;-79
2022/04/12 07:50:33;;;;;;;11.93;6.60;;;;;;;8.95;90.91;101374.50;4933781;28;20039;-79
2022/04/12 07:53:02;;;;;;;9.05;6.78;;;;;;;9.11;90.40;101375.66;4913207;28;25047;-79
2022/04/12 07:55:30;;;;;;;9.43;6.72;;;;;;;9.24;90.08;101360.97;4959807;28;20044;-79
2022/04/12 07:57:59;;;;;;;9.48;6.13;;;;;;;9.42;89.99;101359.53;4940065;28;20273;-78
2022/04/12 08:00:30;;;;;;;7.68;6.35;;;;;;;9.59;89.98;101347.50;4915064;29;20072;-78
2022/04/12 08:02:58;;;;;;;7.05;5.88;;;;;;;9.83;90.14;101356.63;4944908;28;20048;-79
2022/04/12 08:05:27;;;;;;;7.47;6.05;;;;;;;10.06;88.44;101344.66;4918347;29;20058;-79
2022/04/12 08:07:55;;;;;;;9.10;6.82;;;;;;;10.27;87.80;101336.16;4917178;28;22873;-79
2022/04/12 08:10:24;;;;;;;8.38;6.72;;;;;;;10.49;86.90;101329.44;4934337;29;20040;-79
2022/04/12 08:12:52;;;;;;;7.50;6.25;;;;;;;10.57;85.88;101332.16;4939866;28;20039;-79
2022/04/12 08:15:22;;;;;;;8.23;6.00;;;;;;;10.73;87.11;101325.28;4927682;29;20044;-79
2022/04/12 08:17:51;;;;;;;9.57;7.03;;;;;;;10.90;85.71;101323.69;4938507;28;20047;-80
2022/04/12 08:20:19;;;;;;;7.53;6.70;;;;;;;11.08;84.92;101325.63;4925373;28;20043;-79
2022/04/12 08:22:48;;;;;;;8.65;6.40;;;;;;;11.24;85.42;101315.19;4909103;28;20051;-80
2022/04/12 08:25:18;;;;;;;9.13;6.50;;;;;;;11.43;83.26;101319.72;4966554;28;20054;-79
2022/04/12 08:27:47;;;;;;;7.95;6.90;;;;;;;11.55;82.09;101316.31;4951740;28;20047;-80
2022/04/12 08:30:16;;;;;;;7.00;6.07;;;;;;;11.71;82.16;101309.34;4923289;29;20050;-79
2022/04/12 08:32:45;;;;;;;8.27;6.45;;;;;;;11.85;81.34;101315.59;4913241;29;20039;-80
2022/04/12 08:35:13;;;;;;;7.50;6.38;;;;;;;11.94;80.10;101313.91;4921313;29;20078;-79
2022/04/12 08:37:43;;;;;;;8.75;5.85;;;;;;;12.02;80.70;101313.09;4932468;28;20062;-80
2022/04/12 08:40:14;;;;;;;8.38;7.10;;;;;;;12.17;79.21;101322.81;4935426;28;20052;-79
2022/04/12 08:42:42;;;;;;;6.97;6.25;;;;;;;12.32;77.92;101313.19;4951429;28;20496;-79
2022/04/12 08:45:11;;;;;;;9.85;6.80;;;;;;;12.42;76.59;101302.66;4957962;28;20063;-79
2022/04/12 08:47:44;;;;;;;12.93;7.05;;;;;;;12.46;75.82;101299.16;4948135;28;20051;-79
2022/04/12 08:50:15;;;;;;;13.20;7.10;;;;;;;12.58;75.99;101284.19;4931364;29;20047;-79
2022/04/12 08:52:45;;;;;;;9.02;7.60;;;;;;;12.59;74.59;101283.28;4935052;28;20055;-79
2022/04/12 08:55:14;;;;;;;10.65;7.95;;;;;;;12.69;73.80;101293.03;4911543;29;20055;-79
2022/04/12 08:57:44;;;;;;;11.73;7.00;;;;;;;12.65;74.58;101284.19;4945537;28;20054;-79
2022/04/12 09:00:13;;;;;;;12.18;7.45;;;;;;;12.76;74.62;101276.28;4932278;28;20188;-79
2022/04/12 09:02:41;;;;;;;8.18;7.00;;;;;;;12.82;74.77;101284.22;4945989;28;20051;-80
2022/04/12 09:05:10;;;;;;;8.68;7.43;;;;;;;12.88;73.56;101281.56;4943566;28;20066;-79
2022/04/12 09:07:47;;;;;;;10.48;7.15;;;;;;;12.84;72.92;101273.66;4938842;28;20058;-79
2022/04/12 09:10:16;;;;;;;8.32;6.60;;;;;;;12.75;73.61;101263.94;4930112;28;20058;-80
2022/04/12 09:12:45;;;;;;;9.15;7.22;;;;;;;12.75;73.17;101271.00;4949222;28;20047;-80
2022/04/12 09:15:15;;;;;;;11.70;6.63;;;;;;;12.83;74.29;101272.75;4950369;28;20047;-77
2022/04/12 09:17:48;;;;;;;11.45;7.35;;;;;;;12.85;73.86;101255.16;4941123;28;20047;-80
2022/04/12 09:20:19;;;;;;;9.63;7.55;;;;;;;12.85;74.41;101254.25;4950385;28;20055;-78
2022/04/12 09:22:51;;;;;;;9.13;7.25;;;;;;;12.82;72.46;101249.84;4941176;28;20055;-79
2022/04/12 09:25:19;;;;;;;10.98;7.68;;;;;;;12.80;73.39;101258.66;4934699;28;20039;-79
2022/04/12 09:27:49;;;;;;;8.70;6.82;;;;;;;12.71;73.04;101246.31;4959812;28;20047;-78
2022/04/12 09:30:20;;;;;;;9.75;7.28;;;;;;;12.71;73.00;101245.44;4931222;28;20051;-80
2022/04/12 09:32:50;;;;;;;7.75;6.78;;;;;;;12.75;72.61;101241.91;4939040;28;20163;-80
2022/04/12 09:35:18;;;;;;;12.35;7.45;;;;;;;12.69;73.17;101237.50;4931778;28;20043;-77
2022/04/12 09:37:47;;;;;;;11.63;6.88;;;;;;;12.71;73.32;101227.81;4940669;28;20039;-78
2022/04/12 09:40:17;;;;;;;8.60;6.95;;;;;;;12.74;73.75;101216.31;4926633;28;20054;-78
2022/04/12 09:42:50;;;;;;;;;;;;;;;12.83;72.87;101235.72;4949267;28;20040;-78
2022/04/12 09:45:23;;;;;;;8.40;7.03;;;;;;;12.91;73.78;101226.91;4943575;28;19922;-77
2022/04/12 09:48:06;;;;;;;8.40;7.00;;;;;;;13.00;74.58;101218.97;4939747;28;20043;-80
2022/04/12 09:51:01;;;;;;;8.98;7.07;;;;;;;13.10;72.22;101218.09;4933948;28;20048;-79
2022/04/12 09:53:39;;;;;;;8.55;6.90;;;;;;;13.16;71.29;101218.06;4912961;29;20512;-79
2022/04/12 09:56:25;;;;;;;9.57;7.50;;;;;;;13.22;72.02;101207.47;4922443;28;20047;-78
2022/04/12 09:58:56;;;;;;;12.10;7.50;;;;;;;13.32;73.24;101207.50;4944141;28;20277;-79
2022/04/12 10:01:26;;;;;;;11.98;7.25;;;;;;;13.44;73.63;101208.34;4952134;28;20050;-79
2022/04/12 10:03:59;;;;;;;10.75;8.00;;;;;;;13.54;72.22;101218.91;4923998;29;20074;-79
2022/04/12 10:06:28;;;;;;;11.30;7.75;;;;;;;13.52;72.28;101228.63;4939304;28;20404;-78
2022/04/12 10:09:00;;;;;;;9.60;7.43;;;;;;;13.56;72.24;101218.00;4935857;28;20161;-79
2022/04/12 10:11:28;;;;;;;8.80;6.95;;;;;;;13.56;71.69;101212.72;4910855;29;20039;-79
2022/04/12 10:14:00;;;;;;;8.35;7.45;;;;;;;13.64;72.80;101212.69;4946914;28;20042;-79
2022/04/12 10:16:28;;;;;;;9.18;7.65;;;;;;;13.68;71.69;101213.56;4961691;28;20590;-79
2022/04/12 10:19:00;;;;;;;8.43;7.63;;;;;;;13.73;73.08;101204.72;4905851;29;20063;-79
2022/04/12 10:21:29;;;;;;;11.80;8.30;;;;;;;13.81;73.14;101202.91;4948493;28;20047;-78
2022/04/12 10:24:01;;;;;;;11.82;8.60;;;;;;;13.88;72.26;101218.78;4934665;28;20078;-79
2022/04/12 10:26:31;;;;;;;10.93;7.95;;;;;;;13.90;72.46;101207.28;4934186;28;20043;-78
2022/04/12 10:29:04;;;;;;;11.98;7.82;;;;;;;13.97;73.13;101195.78;4926201;28;20703;-78
2022/04/12 10:31:33;;;;;;;13.18;8.88;;;;;;;14.07;73.66;101198.38;4960376;28;20039;-79
2022/04/12 10:34:13;;;;;;;10.48;7.60;;;;;;;14.15;73.37;101196.56;4925475;28;20318;-79
2022/04/12 10:37:04;;;;;;;11.15;8.15;;;;;;;14.28;73.49;101195.59;4935944;28;20039;-80
2022/04/12 10:40:01;;;;;;;10.18;8.38;;;;;;;14.43;74.09;101187.53;4932484;28;20309;-79
2022/04/12 10:42:33;;;;;;;10.32;8.43;;;;;;;14.59;73.89;101185.69;4928460;28;20043;-78
2022/04/12 10:45:04;;;;;;;12.05;8.02;;;;;;;14.75;72.58;101194.38;4948254;28;20451;-78
2022/04/12 10:47:35;;;;;;;9.32;8.32;;;;;;;14.82;71.97;101185.47;4954313;28;20404;-78
2022/04/12 10:50:10;;;;;;;;;;;;;;;14.93;71.28;101187.13;4941799;28;20039;-78
2022/04/12 10:52:42;;;;;;;9.95;7.65;;;;;;;15.10;72.71;101179.03;4938727;28;19922;-79
2022/04/12 10:55:16;;;;;;;12.48;9.25;;;;;;;15.21;70.34;101163.84;4921709;28;20169;-79
2022/04/12 10:57:45;;;;;;;12.70;9.40;;;;;;;15.34;71.83;101169.91;4912610;29;20039;-79
2022/04/12 11:00:19;;;;;;;10.73;8.80;;;;;;;15.40;69.96;101161.88;4939726;29;20047;-78
2022/04/12 11:02:58;;;;;;;12.82;8.80;;;;;;;15.45;68.31;101175.97;4959560;28;20044;-79
2022/04/12 11:05:37;;;;;;;13.52;8.68;;;;;;;15.54;68.12;101161.72;4944850;28;20066;-80
2022/04/12 11:08:14;;;;;;;9.27;8.35;;;;;;;15.47;66.31;101168.88;4939983;28;20258;-79
2022/04/12 11:10:49;;;;;;;;;;;;;;;15.38;66.92;101153.03;4937502;28;20069;-80
2022/04/12 11:13:21;;;;;;;12.55;8.50;;;;;;;15.30;68.59;101142.50;4920044;28;20371;-79
2022/04/12 11:16:08;;;;;;;12.05;8.70;;;;;;;15.25;69.24;101140.81;4950554;29;20043;-80
2022/04/12 11:18:50;;;;;;;12.05;8.95;;;;;;;15.25;69.61;101141.69;4937886;29;20070;-79
2022/04/12 11:21:40;;;;;;;13.07;8.23;;;;;;;15.34;68.61;101148.69;4966841;28;20046;-78
2022/04/12 11:24:12;;;;;;;14.88;9.52;;;;;;;15.45;69.99;101140.59;4941227;28;20456;-78
2022/04/12 11:26:49;;;;;;;10.57;8.75;;;;;;;15.55;69.36;101129.81;4938873;28;20066;-80
2022/04/12 11:29:20;;;;;;;10.75;9.40;;;;;;;15.62;69.36;101130.63;4931391;28;20031;-79
2022/04/12 11:31:51;;;;;;;13.55;9.32;;;;;;;15.78;69.53;101129.56;4947941;28;20383;-80
2022/04/12 11:34:21;;;;;;;15.52;10.75;;;;;;;15.89;68.64;101124.06;4952341;29;20054;-78
2022/04/12 11:36:54;;;;;;;12.73;9.27;;;;;;;15.93;68.28;101128.44;4936085;28;20047;-79
2022/04/12 11:39:25;;;;;;;13.40;9.52;;;;;;;16.00;67.50;101131.91;4947113;29;20397;-78
2022/04/12 11:41:59;;;;;;;15.25;9.02;;;;;;;16.03;67.88;101136.28;4920873;28;21571;-79
2022/04/12 11:44:28;;;;;;;10.15;8.85;;;;;;;16.12;68.01;101138.81;4924395;28;20035;-79